Time;durP1;ratioP1;P1;durP2;ratioP2;P2;SDS_P1;SDS_P2;PMS_P1;PMS_P2;Temp;Humidity;BMP_temperature;BMP_pressure;BME280_temperature;BME280_humidity;BME280_pressure;Samples;Min_cycle;Max_cycle;Signal;HPM_P1;HPM_P2
2021/10/29 00:00:57;;;;;;;0.20;0.20;;;;;;;10.82;93.66;100118.38;5084722;28;20043;-69
2021/10/29 00:03:22;;;;;;;0.30;0.30;;;;;;;10.82;93.73;100118.38;5084564;28;20020;-70
2021/10/29 00:05:48;;;;;;;0.30;0.30;;;;;;;10.89;93.55;100117.41;5084978;28;20028;-70
2021/10/29 00:08:14;;;;;;;0.30;0.30;;;;;;;10.89;93.62;100120.84;5084689;28;20046;-69
2021/10/29 00:10:39;;;;;;;0.63;0.63;;;;;;;10.86;93.76;100110.50;5084855;28;20020;-69
2021/10/29 00:13:05;;;;;;;0.75;0.75;;;;;;;10.90;93.54;100109.59;5083408;28;20020;-69
2021/10/29 00:15:31;;;;;;;0.30;0.30;;;;;;;10.89;93.48;100105.25;5084242;28;20080;-69
2021/10/29 00:17:57;;;;;;;0.60;0.60;;;;;;;10.81;93.35;100103.66;5084405;28;20361;-69
2021/10/29 00:20:22;;;;;;;0.30;0.30;;;;;;;10.75;93.36;100107.22;5084499;28;20130;-69
2021/10/29 00:22:48;;;;;;;1.45;1.45;;;;;;;10.76;93.38;100108.94;5084191;28;20031;-67
2021/10/29 00:25:14;;;;;;;0.88;0.88;;;;;;;10.70;93.71;100099.50;5091881;28;20040;-69
2021/10/29 00:27:40;;;;;;;0.80;0.75;;;;;;;10.66;94.03;100113.38;5104313;28;20075;-68
2021/10/29 00:30:06;;;;;;;0.30;0.30;;;;;;;10.70;93.58;100106.44;5104149;28;20058;-68
2021/10/29 00:32:32;;;;;;;1.00;1.00;;;;;;;10.75;93.57;100113.25;5104254;28;20551;-67
2021/10/29 00:34:57;;;;;;;0.45;0.45;;;;;;;10.75;94.10;100102.88;5104138;28;20462;-68
2021/10/29 00:37:23;;;;;;;0.40;0.40;;;;;;;10.89;93.47;100110.47;5085626;28;20046;-68
2021/10/29 00:39:48;;;;;;;1.27;1.27;;;;;;;10.85;93.50;100102.72;5104293;28;20044;-68
2021/10/29 00:42:14;;;;;;;0.50;0.50;;;;;;;10.93;93.47;100102.66;5104226;28;20020;-69
2021/10/29 00:44:39;;;;;;;0.20;0.20;;;;;;;10.87;93.89;100116.56;5103888;28;20028;-68
2021/10/29 00:47:05;;;;;;;2.60;2.40;;;;;;;10.88;94.08;100124.34;5104216;28;20055;-69
2021/10/29 00:49:31;;;;;;;0.40;0.40;;;;;;;10.89;93.69;100120.00;5104148;28;20050;-69
2021/10/29 00:51:56;;;;;;;0.55;0.55;;;;;;;10.91;92.78;100103.50;5103949;28;20097;-69
2021/10/29 00:54:22;;;;;;;0.38;0.38;;;;;;;10.93;92.66;100110.44;5104147;28;20019;-69
2021/10/29 00:56:49;;;;;;;0.30;0.30;;;;;;;10.82;93.29;100103.66;5104140;28;20504;-68
2021/10/29 00:59:17;;;;;;;0.47;0.47;;;;;;;10.73;93.77;100103.78;5103602;28;20085;-67
2021/10/29 01:01:43;;;;;;;0.20;0.20;;;;;;;10.82;93.14;100105.38;5103795;28;20020;-68
2021/10/29 01:04:09;;;;;;;0.47;0.47;;;;;;;10.76;93.25;100103.75;5085963;28;20024;-68
2021/10/29 01:06:35;;;;;;;0.35;0.35;;;;;;;10.69;92.88;100096.94;5103625;28;20035;-68
2021/10/29 01:09:00;;;;;;;0.30;0.30;;;;;;;10.65;93.12;100091.75;5119475;28;20373;-69
2021/10/29 01:11:27;;;;;;;0.85;0.85;;;;;;;10.69;93.17;100105.56;5085568;28;20046;-68
2021/10/29 01:13:53;;;;;;;0.30;0.30;;;;;;;10.68;93.34;100106.44;5085173;28;20087;-68
2021/10/29 01:16:21;;;;;;;0.32;0.32;;;;;;;10.66;92.75;100106.47;5103842;28;20031;-68
2021/10/29 01:18:46;;;;;;;1.08;1.08;;;;;;;10.62;93.25;100109.13;5103488;28;20036;-68
2021/10/29 01:21:12;;;;;;;0.93;0.93;;;;;;;10.62;93.29;100107.38;5103619;28;20054;-68
2021/10/29 01:23:37;;;;;;;0.30;0.30;;;;;;;10.63;93.15;100100.44;5103482;28;20020;-69
2021/10/29 01:26:09;;;;;;;0.60;0.60;;;;;;;10.54;93.21;100098.84;5103251;28;20373;-68
2021/10/29 01:28:35;;;;;;;2.92;2.75;;;;;;;10.56;93.15;100091.88;5103748;28;20020;-68
2021/10/29 01:31:02;;;;;;;0.60;0.60;;;;;;;10.49;93.33;100078.16;5103237;28;20047;-67
2021/10/29 01:33:29;;;;;;;1.83;1.35;;;;;;;10.61;93.09;100084.03;5103341;28;20060;-68
2021/10/29 01:35:55;;;;;;;0.30;0.30;;;;;;;10.51;93.33;100083.31;5103484;28;20024;-69
2021/10/29 01:38:21;;;;;;;1.48;1.38;;;;;;;10.52;93.43;100092.81;5103373;28;20103;-69
2021/10/29 01:40:46;;;;;;;0.40;0.40;;;;;;;10.56;93.13;100091.88;5103156;28;20463;-69
2021/10/29 01:43:12;;;;;;;0.20;0.20;;;;;;;10.39;93.40;100077.38;5103018;28;20059;-68
2021/10/29 01:45:37;;;;;;;1.70;1.63;;;;;;;10.43;93.32;100085.13;5102872;28;20119;-68
2021/10/29 01:48:03;;;;;;;0.30;0.30;;;;;;;10.38;93.26;100075.63;5102494;28;20034;-67
2021/10/29 01:50:28;;;;;;;0.30;0.30;;;;;;;10.37;93.37;100080.84;5103054;28;20408;-68
2021/10/29 01:52:55;;;;;;;0.30;0.30;;;;;;;10.32;93.58;100080.91;5102822;28;20034;-68
2021/10/29 01:55:20;;;;;;;0.30;0.30;;;;;;;10.31;93.63;100076.59;5103058;28;20080;-68
2021/10/29 01:57:46;;;;;;;1.67;1.58;;;;;;;10.33;93.36;100072.25;5118547;28;20106;-68
2021/10/29 02:00:12;;;;;;;1.00;0.75;;;;;;;10.31;93.84;100067.97;5084713;28;20031;-69
2021/10/29 02:02:39;;;;;;;0.57;0.57;;;;;;;10.25;93.85;100067.19;5102881;28;20394;-68
2021/10/29 02:05:05;;;;;;;0.52;0.52;;;;;;;10.20;93.71;100049.94;5103059;28;20024;-68
2021/10/29 02:07:30;;;;;;;1.48;1.15;;;;;;;10.22;93.85;100059.44;5103160;28;20050;-68
2021/10/29 02:09:56;;;;;;;2.33;2.20;;;;;;;10.28;93.47;100054.16;5103244;28;20540;-69
2021/10/29 02:12:21;;;;;;;0.30;0.30;;;;;;;10.18;93.32;100034.38;5102927;28;20028;-68
2021/10/29 02:14:46;;;;;;;0.85;0.82;;;;;;;10.29;92.95;100048.09;5102634;28;20027;-68
2021/10/29 02:17:12;;;;;;;6.55;4.78;;;;;;;10.15;93.48;100037.88;5103134;28;20042;-68
2021/10/29 02:19:37;;;;;;;2.08;0.45;;;;;;;10.10;93.96;100042.28;5102824;28;20024;-69
2021/10/29 02:22:03;;;;;;;1.30;1.25;;;;;;;10.14;93.71;100049.13;5102966;28;20016;-68
2021/10/29 02:24:29;;;;;;;0.30;0.30;;;;;;;10.17;93.46;100049.09;5102760;28;20032;-68
2021/10/29 02:26:54;;;;;;;0.40;0.40;;;;;;;10.14;94.04;100043.94;5102879;28;20036;-68
2021/10/29 02:29:20;;;;;;;0.60;0.60;;;;;;;10.16;94.14;100042.19;5084424;28;20020;-68
2021/10/29 02:31:45;;;;;;;2.47;2.38;;;;;;;10.23;93.59;100044.72;5102746;28;20020;-68
2021/10/29 02:34:11;;;;;;;4.03;1.30;;;;;;;10.17;94.07;100035.28;5102698;28;20024;-68
2021/10/29 02:36:36;;;;;;;1.25;1.25;;;;;;;10.15;94.06;100024.91;5084378;28;20468;-68
2021/10/29 02:39:02;;;;;;;2.83;2.13;;;;;;;10.24;94.15;100030.88;5102527;28;20054;-67
2021/10/29 02:41:28;;;;;;;2.97;2.88;;;;;;;10.22;94.06;100009.28;5102417;28;20020;-67
2021/10/29 02:43:53;;;;;;;0.50;0.50;;;;;;;10.38;93.15;100015.94;5102451;28;20031;-68
2021/10/29 02:46:18;;;;;;;0.73;0.73;;;;;;;10.23;93.99;100018.75;5102352;28;20085;-67
2021/10/29 02:48:44;;;;;;;3.17;2.97;;;;;;;10.26;93.70;100021.31;5102380;28;20050;-67
2021/10/29 02:51:10;;;;;;;0.30;0.30;;;;;;;10.19;94.07;100024.88;5102511;28;20077;-67
2021/10/29 02:53:36;;;;;;;0.50;0.50;;;;;;;10.31;93.33;100013.47;5102318;28;20027;-68
2021/10/29 02:56:03;;;;;;;1.15;1.15;;;;;;;10.25;93.58;100017.00;5118080;28;20035;-68
2021/10/29 02:58:31;;;;;;;0.50;0.50;;;;;;;10.23;93.94;100008.38;5102428;28;20020;-68
2021/10/29 03:00:57;;;;;;;2.28;2.17;;;;;;;10.31;93.86;100010.88;5104976;28;20030;-68
2021/10/29 03:03:23;;;;;;;0.30;0.30;;;;;;;10.26;94.21;100005.75;5106080;28;20047;-68
2021/10/29 03:05:49;;;;;;;0.30;0.30;;;;;;;10.28;94.42;100006.59;5106026;28;20024;-68
2021/10/29 03:08:15;;;;;;;0.50;0.50;;;;;;;10.31;94.25;100009.16;5106078;28;20046;-68
2021/10/29 03:10:40;;;;;;;0.50;0.50;;;;;;;10.39;93.96;100001.25;5106231;28;20107;-69
2021/10/29 03:13:06;;;;;;;0.20;0.20;;;;;;;10.41;93.64;100005.53;5105721;28;20420;-69
2021/10/29 03:15:31;;;;;;;0.63;0.63;;;;;;;10.44;93.58;99999.47;5105617;28;20034;-68
2021/10/29 03:17:56;;;;;;;2.10;2.00;;;;;;;10.34;93.84;99992.66;5105686;28;20020;-68
2021/10/29 03:20:22;;;;;;;0.95;0.95;;;;;;;10.39;94.04;100001.25;5105684;28;20024;-69
2021/10/29 03:22:47;;;;;;;0.40;0.40;;;;;;;10.36;94.00;99994.38;5105501;28;20051;-68
2021/10/29 03:25:13;;;;;;;1.80;1.50;;;;;;;10.41;93.84;99997.75;5105548;28;20075;-69
2021/10/29 03:27:38;;;;;;;0.32;0.32;;;;;;;10.49;93.45;100002.00;5105666;28;20096;-69
2021/10/29 03:30:05;;;;;;;0.90;0.90;;;;;;;10.46;93.67;100002.03;5105442;28;20112;-68
2021/10/29 03:32:31;;;;;;;2.13;1.35;;;;;;;10.44;94.22;100001.19;5121307;28;20077;-68
2021/10/29 03:34:57;;;;;;;4.65;2.65;;;;;;;10.53;93.42;100001.06;5105588;28;20058;-69
2021/10/29 03:40:09;;;;;;;3.40;1.63;;;;;;;10.46;93.69;99996.84;5105569;28;20028;-69
2021/10/29 03:42:39;;;;;;;1.63;1.52;;;;;;;10.50;93.16;99990.75;5105255;28;20043;-69
2021/10/29 03:45:09;;;;;;;0.20;0.20;;;;;;;10.46;93.55;99989.94;5105252;28;20079;-69
2021/10/29 03:47:42;;;;;;;0.60;0.60;;;;;;;10.44;93.79;99989.06;5105290;28;20107;-68
2021/10/29 03:52:51;;;;;;;3.70;3.40;;;;;;;10.33;93.87;99981.44;5105051;28;20020;-68
2021/10/29 03:55:16;;;;;;;0.50;0.50;;;;;;;10.34;93.54;99970.19;5105050;28;20019;-68
2021/10/29 03:57:42;;;;;;;0.40;0.40;;;;;;;10.31;93.84;99972.81;5105010;28;20027;-69
2021/10/29 04:00:08;;;;;;;0.50;0.50;;;;;;;10.47;93.40;99983.00;5104722;28;20241;-68
2021/10/29 04:02:33;;;;;;;0.35;0.35;;;;;;;10.50;92.43;99973.44;5104602;28;20059;-69
2021/10/29 04:04:58;;;;;;;3.05;2.25;;;;;;;10.50;92.44;99962.19;5105026;28;20024;-68
2021/10/29 04:07:24;;;;;;;0.30;0.30;;;;;;;10.48;92.53;99967.41;5104870;28;20031;-68
2021/10/29 04:09:49;;;;;;;0.30;0.30;;;;;;;10.43;92.88;99968.34;5104824;28;20024;-68
2021/10/29 04:12:16;;;;;;;0.30;0.30;;;;;;;10.47;92.62;99967.44;5103553;28;20083;-68
2021/10/29 04:14:42;;;;;;;2.25;2.15;;;;;;;10.29;93.03;99957.28;5119980;28;20237;-67
2021/10/29 04:17:08;;;;;;;0.20;0.20;;;;;;;10.43;92.70;99968.34;5086582;28;20051;-68
2021/10/29 04:19:33;;;;;;;1.17;1.08;;;;;;;10.51;92.03;99958.75;5120056;28;20031;-69
2021/10/29 04:22:00;;;;;;;0.60;0.60;;;;;;;10.41;92.23;99955.38;5104440;28;20024;-68
2021/10/29 04:24:26;;;;;;;1.15;1.15;;;;;;;10.29;92.73;99957.28;5104319;28;20025;-69
2021/10/29 04:26:52;;;;;;;0.20;0.20;;;;;;;10.30;93.42;99955.53;5104463;28;20027;-68
2021/10/29 04:29:24;;;;;;;1.05;1.05;;;;;;;10.33;92.62;99950.31;5104249;28;20028;-69
2021/10/29 04:31:50;;;;;;;;;;;;;;;10.31;92.92;99946.00;5105050;28;20103;-71
2021/10/29 04:34:33;;;;;;;0.38;0.38;;;;;;;10.35;92.59;99947.69;5104484;28;20272;-67
2021/10/29 04:36:59;;;;;;;0.30;0.30;;;;;;;10.29;92.32;99939.13;5086034;28;20376;-67
2021/10/29 04:39:25;;;;;;;0.73;0.73;;;;;;;10.27;92.74;99945.22;5119920;28;20045;-66
2021/10/29 04:41:51;;;;;;;0.30;0.30;;;;;;;10.28;93.17;99944.31;5104328;28;20035;-68
2021/10/29 04:44:21;;;;;;;1.67;1.58;;;;;;;10.23;92.83;99944.41;5104162;28;20232;-68
2021/10/29 04:46:46;;;;;;;0.80;0.80;;;;;;;10.20;92.85;99935.78;5104574;28;20024;-70
2021/10/29 04:49:12;;;;;;;1.00;1.00;;;;;;;10.34;92.76;99935.59;5104523;28;20046;-72
2021/10/29 04:51:38;;;;;;;0.70;0.70;;;;;;;10.29;92.70;99938.25;5119623;28;20175;-71
2021/10/29 04:54:03;;;;;;;2.00;1.85;;;;;;;10.26;92.50;99939.16;5104296;28;20016;-69
2021/10/29 04:56:29;;;;;;;1.98;1.90;;;;;;;10.25;92.73;99946.97;5104250;28;20028;-71
2021/10/29 04:58:54;;;;;;;1.27;1.15;;;;;;;10.20;93.23;99939.25;5104404;28;20036;-69
2021/10/29 05:01:20;;;;;;;2.63;1.42;;;;;;;10.20;93.16;99939.25;5103776;28;20058;-69
2021/10/29 05:03:45;;;;;;;2.45;2.35;;;;;;;10.21;93.17;99925.38;5103884;28;20326;-68
2021/10/29 05:06:10;;;;;;;1.92;1.83;;;;;;;10.21;92.81;99924.56;5103943;28;20023;-68
2021/10/29 05:08:37;;;;;;;1.27;1.27;;;;;;;10.23;93.04;99922.78;5103989;28;20505;-69
2021/10/29 05:11:03;;;;;;;0.40;0.40;;;;;;;10.26;92.40;99920.13;5103918;28;20028;-69
2021/10/29 05:13:28;;;;;;;0.30;0.30;;;;;;;10.21;92.55;99916.78;5103937;28;20024;-69
2021/10/29 05:15:54;;;;;;;0.30;0.30;;;;;;;10.17;92.39;99921.13;5103788;28;20086;-69
2021/10/29 05:18:21;;;;;;;1.52;1.52;;;;;;;10.14;92.41;99921.19;5103968;28;20032;-68
2021/10/29 05:20:47;;;;;;;1.20;0.95;;;;;;;10.11;92.41;99921.22;5103500;28;20035;-72
2021/10/29 05:23:12;;;;;;;0.45;0.45;;;;;;;10.16;92.44;99920.28;5102997;28;20028;-71
2021/10/29 05:25:38;;;;;;;2.47;2.28;;;;;;;10.41;91.18;99935.47;5118786;28;20046;-72
2021/10/29 05:28:04;;;;;;;0.73;0.73;;;;;;;10.16;91.42;99928.06;5103691;28;20101;-70
2021/10/29 05:30:30;;;;;;;0.30;0.30;;;;;;;10.10;92.25;99925.56;5103099;28;20305;-70
2021/10/29 05:32:56;;;;;;;0.70;0.70;;;;;;;10.25;91.24;99921.88;5103320;28;20016;-71
2021/10/29 05:35:21;;;;;;;2.10;1.17;;;;;;;10.14;90.90;99906.47;5103524;28;20380;-72
2021/10/29 05:37:47;;;;;;;1.02;1.02;;;;;;;10.25;90.37;99921.03;5103553;28;20044;-73
2021/10/29 05:40:12;;;;;;;0.60;0.60;;;;;;;10.07;91.48;99924.72;5103485;28;20116;-70
2021/10/29 05:42:38;;;;;;;3.60;1.17;;;;;;;9.94;92.12;99919.72;5103332;28;20016;-72
2021/10/29 05:45:09;;;;;;;1.80;1.70;;;;;;;9.96;92.12;99923.16;5084735;28;20073;-70
2021/10/29 05:47:36;;;;;;;0.68;0.68;;;;;;;9.97;92.04;99921.44;5103219;28;20020;-70
2021/10/29 05:50:05;;;;;;;7.15;2.80;;;;;;;9.99;92.07;99924.84;5103486;28;20028;-69
2021/10/29 05:52:30;;;;;;;0.45;0.45;;;;;;;9.94;91.67;99922.31;5103386;28;20110;-70
2021/10/29 05:57:25;;;;;;;0.30;0.30;;;;;;;10.17;90.27;99911.59;5103688;28;20200;-73
2021/10/29 05:59:52;;;;;;;0.60;0.60;;;;;;;9.95;90.64;99925.78;5103835;28;20031;-70
2021/10/29 06:02:17;;;;;;;1.40;1.40;;;;;;;10.19;89.50;99921.13;5103154;28;20039;-70
2021/10/29 06:04:44;;;;;;;0.30;0.30;;;;;;;10.14;89.19;99923.78;5103312;28;20023;-72
2021/10/29 06:07:09;;;;;;;0.73;0.73;;;;;;;10.13;89.29;99930.69;5103324;28;20024;-72
2021/10/29 06:09:35;;;;;;;0.30;0.30;;;;;;;9.77;90.37;99926.00;5103471;28;20024;-69
2021/10/29 06:12:01;;;;;;;0.73;0.73;;;;;;;9.84;91.04;99933.69;5103231;28;20665;-69
2021/10/29 06:14:27;;;;;;;0.28;0.28;;;;;;;9.74;91.39;99925.19;5102713;28;20008;-70
2021/10/29 06:16:56;;;;;;;0.60;0.60;;;;;;;9.71;91.90;99936.44;5103225;28;20030;-70
2021/10/29 06:19:22;;;;;;;1.85;1.80;;;;;;;9.76;91.86;99938.97;5084672;28;20032;-69
2021/10/29 06:21:57;;;;;;;53.13;20.17;;;;;;;9.83;91.62;99942.34;5102956;28;20428;-69
2021/10/29 06:24:23;;;;;;;73.28;27.27;;;;;;;9.85;91.77;99951.81;5102890;28;20028;-70
2021/10/29 06:29:26;;;;;;;99.88;39.22;;;;;;;9.78;92.16;99942.41;5103049;28;20033;-70
2021/10/29 06:31:52;;;;;;;100.03;40.35;;;;;;;9.87;91.90;99944.88;5084603;28;20444;-69
2021/10/29 06:34:17;;;;;;;114.07;42.85;;;;;;;9.79;91.88;99942.38;5102996;28;20461;-69
2021/10/29 06:36:43;;;;;;;103.70;38.17;;;;;;;9.80;92.50;99951.03;5106800;28;20024;-70
2021/10/29 06:39:09;;;;;;;100.38;40.28;;;;;;;9.85;91.94;99938.88;5107012;28;20024;-69
2021/10/29 06:41:35;;;;;;;101.70;43.13;;;;;;;9.83;92.26;99945.78;5106872;28;20020;-69
2021/10/29 07:00:42;;;;;;;53.67;22.65;;;;;;;9.98;89.18;99928.31;5063682;28;20040;-69
2021/10/29 07:39:57;;;;;;;56.40;25.48;;;;;;;9.86;90.31;99947.47;5003920;28;20125;-69
2021/10/29 07:41:03;;;;;;;73.88;34.35;;;;;;;9.81;91.80;99983.00;5003561;28;20118;-69
2021/10/29 07:43:38;;;;;;;71.35;32.53;;;;;;;9.90;91.71;99993.25;5077058;28;20032;-71
2021/10/29 07:46:04;;;;;;;74.38;35.72;;;;;;;9.88;91.18;99992.41;5084673;28;20464;-69
2021/10/29 07:48:32;;;;;;;83.28;36.83;;;;;;;9.95;90.99;99981.09;5084949;28;20039;-69
2021/10/29 07:50:58;;;;;;;71.65;34.13;;;;;;;9.92;91.26;99981.09;5085410;28;20479;-69
2021/10/29 07:53:23;;;;;;;71.28;34.90;;;;;;;10.01;90.81;99977.56;5085040;28;20028;-69
2021/10/29 07:55:49;;;;;;;77.63;34.53;;;;;;;10.03;90.73;99983.59;5085275;28;20105;-68
2021/10/29 07:58:15;;;;;;;62.47;29.15;;;;;;;9.96;91.22;99980.22;5085359;28;20029;-69
2021/10/29 08:00:41;;;;;;;75.65;32.33;;;;;;;9.98;91.09;99981.06;5084600;28;20396;-69
2021/10/29 08:03:07;;;;;;;77.93;37.08;;;;;;;9.96;90.86;99977.63;5084821;28;20017;-68
2021/10/29 08:05:34;;;;;;;47.33;21.90;;;;;;;10.12;90.52;99974.81;5085150;28;20032;-70
2021/10/29 08:08:00;;;;;;;72.25;34.28;;;;;;;10.04;90.19;99985.28;5085156;28;20267;-68
2021/10/29 08:10:25;;;;;;;68.13;31.92;;;;;;;9.95;90.57;99981.09;5085020;28;20032;-69
2021/10/29 08:12:51;;;;;;;59.72;26.95;;;;;;;10.09;89.83;99983.50;5085083;28;20019;-71
2021/10/29 08:15:16;;;;;;;79.40;36.40;;;;;;;10.09;89.52;99993.88;5084895;28;20078;-69
2021/10/29 08:17:42;;;;;;;64.68;28.40;;;;;;;9.99;90.05;99979.28;5084867;28;20102;-70
2021/10/29 08:20:12;;;;;;;85.28;39.92;;;;;;;9.90;90.79;99988.06;5084566;28;20036;-68
2021/10/29 08:22:38;;;;;;;79.80;38.38;;;;;;;9.95;91.05;99983.69;5084503;28;20062;-68
2021/10/29 08:25:05;;;;;;;74.68;34.13;;;;;;;10.14;89.77;99991.22;5084419;28;20052;-69
2021/10/29 08:27:30;;;;;;;91.65;38.60;;;;;;;9.99;90.41;99987.94;5084306;28;20038;-67
2021/10/29 08:29:56;;;;;;;44.67;21.45;;;;;;;10.14;90.16;100002.44;5084166;28;20056;-69
2021/10/29 08:32:23;;;;;;;73.65;36.22;;;;;;;9.98;89.85;99975.00;5084197;28;20035;-68
2021/10/29 08:34:48;;;;;;;87.05;36.58;;;;;;;10.04;90.16;99988.75;5084141;28;20063;-68
2021/10/29 08:37:15;;;;;;;89.25;40.53;;;;;;;10.06;89.41;99991.31;5084449;28;20025;-68
2021/10/29 08:39:40;;;;;;;68.85;31.98;;;;;;;10.09;89.83;99996.47;5084321;28;20028;-71
2021/10/29 08:42:07;;;;;;;79.53;33.22;;;;;;;10.13;88.70;99982.56;5083946;28;20115;-68
2021/10/29 08:44:34;;;;;;;86.63;39.85;;;;;;;9.91;90.28;99988.03;5084132;28;20268;-68
2021/10/29 08:47:02;;;;;;;63.10;28.10;;;;;;;10.14;89.28;99991.22;5084506;28;20628;-68
2021/10/29 08:49:28;;;;;;;49.47;20.35;;;;;;;10.27;88.31;99978.94;5083956;28;20024;-70
2021/10/29 08:51:54;;;;;;;62.65;27.88;;;;;;;10.11;88.30;99979.13;5084176;28;20052;-70
2021/10/29 08:54:20;;;;;;;76.50;36.78;;;;;;;10.03;89.04;99987.03;5084051;28;20024;-68
2021/10/29 08:56:46;;;;;;;67.43;32.60;;;;;;;9.90;90.34;99994.09;5084011;28;20021;-68
2021/10/29 08:59:19;;;;;;;77.53;36.20;;;;;;;10.00;90.41;99986.22;5083540;28;20021;-68
2021/10/29 09:01:50;;;;;;;69.13;29.88;;;;;;;10.10;89.91;99987.81;5083962;28;20028;-69
2021/10/29 09:04:20;;;;;;;75.60;37.20;;;;;;;10.09;89.33;99988.69;5083894;28;20530;-69
2021/10/29 09:07:19;;;;;;;73.45;31.63;;;;;;;10.03;89.54;99981.81;5084015;28;20520;-68
2021/10/29 09:09:45;;;;;;;84.13;36.58;;;;;;;10.04;89.74;99983.56;5083303;28;20056;-69
2021/10/29 09:16:11;;;;;;;88.38;40.03;;;;;;;10.09;90.17;99996.47;5083790;28;20472;-69
2021/10/29 09:31:34;;;;;;;78.25;37.03;;;;;;;10.22;89.66;99967.75;5083586;28;20392;-69
2021/10/29 09:34:11;;;;;;;81.03;38.85;;;;;;;10.25;89.92;99975.50;5083479;28;20021;-69
2021/10/29 09:36:52;;;;;;;75.00;35.45;;;;;;;10.28;90.03;99971.13;5083802;28;20042;-69
2021/10/29 09:39:23;;;;;;;52.50;24.05;;;;;;;10.44;89.44;99970.03;5065719;28;20047;-69
2021/10/29 09:42:07;;;;;;;77.60;35.25;;;;;;;10.43;88.98;99971.78;5083336;28;20024;-69
2021/10/29 09:44:53;;;;;;;70.18;37.28;;;;;;;10.42;89.10;99962.28;5083449;28;20341;-68
2021/10/29 09:47:22;;;;;;;61.97;32.15;;;;;;;10.36;89.56;99975.34;5065323;28;20020;-69
2021/10/29 09:50:05;;;;;;;70.80;36.28;;;;;;;10.46;89.10;99976.06;5083306;28;20031;-69
2021/10/29 09:53:07;;;;;;;71.15;35.25;;;;;;;10.35;89.96;99978.84;5083392;28;20013;-68
2021/10/29 09:55:35;;;;;;;39.92;19.33;;;;;;;10.54;89.66;99974.25;5080155;28;20052;-69
2021/10/29 09:58:00;;;;;;;55.70;25.35;;;;;;;10.54;88.89;99971.66;5083529;28;20121;-69
2021/10/29 10:00:30;;;;;;;61.85;28.02;;;;;;;10.49;89.39;99978.66;5083341;28;20586;-68
2021/10/29 10:02:55;;;;;;;59.78;23.58;;;;;;;10.71;87.72;99973.13;5083077;28;20032;-69
2021/10/29 10:05:23;;;;;;;29.80;15.27;;;;;;;10.73;87.35;99971.38;5083770;28;20506;-70
2021/10/29 10:07:48;;;;;;;63.22;29.15;;;;;;;10.53;87.89;99982.91;5065048;28;20091;-69
2021/10/29 10:10:14;;;;;;;63.40;34.33;;;;;;;10.64;87.78;99973.22;5085209;28;20021;-70
2021/10/29 10:12:43;;;;;;;38.92;20.02;;;;;;;10.79;87.26;99979.06;5087234;28;20070;-71
2021/10/29 10:15:09;;;;;;;52.38;25.75;;;;;;;10.60;87.72;99981.94;5069201;28;20024;-71
2021/10/29 10:17:35;;;;;;;59.70;30.17;;;;;;;10.54;88.42;99982.03;5087541;28;20032;-69
2021/10/29 10:20:04;;;;;;;54.80;28.67;;;;;;;10.63;88.30;99957.66;5087314;28;20025;-71
2021/10/29 10:22:37;;;;;;;41.22;22.45;;;;;;;10.77;87.00;99968.69;5087308;28;20021;-70
2021/10/29 10:25:09;;;;;;;50.05;24.98;;;;;;;10.74;87.53;99978.25;5087211;28;20076;-70
2021/10/29 10:30:42;;;;;;;50.78;27.25;;;;;;;10.74;88.45;99971.34;5086927;28;20024;-70
2021/10/29 10:47:06;;;;;;;25.95;14.70;;;;;;;10.94;85.97;99969.31;5087085;28;20020;-71
2021/10/29 10:49:42;;;;;;;60.67;27.17;;;;;;;10.81;86.30;99961.72;5086956;28;20016;-70
2021/10/29 10:54:49;;;;;;;27.42;13.73;;;;;;;10.97;85.31;99951.06;5086771;28;20023;-71
2021/10/29 11:10:32;;;;;;;39.80;19.75;;;;;;;10.89;85.01;99941.66;5086660;28;20047;-70
2021/10/29 11:13:01;;;;;;;24.50;13.30;;;;;;;11.20;84.43;99939.41;5085973;28;20012;-70
2021/10/29 11:15:28;;;;;;;26.77;14.02;;;;;;;11.52;84.07;99927.50;5068189;28;20050;-70
2021/10/29 11:17:58;;;;;;;26.50;15.38;;;;;;;11.88;82.81;99938.06;5085946;28;20029;-71
2021/10/29 11:20:36;;;;;;;27.52;13.63;;;;;;;12.00;80.75;99936.06;5086057;28;20225;-69
2021/10/29 11:23:17;;;;;;;28.00;15.07;;;;;;;11.78;80.78;99924.41;5085897;28;20021;-70
2021/10/29 11:25:51;;;;;;;31.67;16.10;;;;;;;11.65;80.87;99918.59;5067788;28;20507;-71
2021/10/29 11:28:17;;;;;;;38.72;19.88;;;;;;;11.45;81.04;99919.00;5085973;28;20136;-69
2021/10/29 11:30:44;;;;;;;34.55;18.10;;;;;;;11.33;81.70;99899.31;5067532;28;20477;-69
2021/10/29 11:33:10;;;;;;;42.40;26.50;;;;;;;11.15;83.20;99916.94;5085892;28;20047;-68
2021/10/29 11:35:36;;;;;;;46.25;25.25;;;;;;;11.27;83.59;99922.81;5085998;28;20032;-69
2021/10/29 11:38:05;;;;;;;24.00;15.82;;;;;;;11.48;81.56;99897.28;5086071;28;20035;-70
2021/10/29 11:40:31;;;;;;;35.67;16.38;;;;;;;11.61;80.94;99910.88;5085886;28;20024;-70
2021/10/29 11:42:57;;;;;;;27.17;14.93;;;;;;;11.62;80.99;99897.84;5085667;28;20024;-70
2021/10/29 11:45:36;;;;;;;34.13;19.90;;;;;;;11.50;81.29;99877.31;5085714;28;20270;-69
2021/10/29 11:48:03;;;;;;;29.02;17.60;;;;;;;11.48;81.65;99898.16;5067461;28;20031;-69
2021/10/29 11:50:29;;;;;;;38.55;17.95;;;;;;;11.57;80.86;99893.63;5085620;28;20071;-70
2021/10/29 11:52:55;;;;;;;41.72;23.08;;;;;;;11.30;81.67;99875.09;5085418;28;20021;-70
2021/10/29 11:55:30;;;;;;;32.20;16.88;;;;;;;11.48;81.18;99894.69;5085266;28;20099;-68
2021/10/29 11:58:07;;;;;;;34.75;20.67;;;;;;;11.34;81.83;99880.22;5085633;28;20024;-69
2021/10/29 12:08:37;;;;;;;30.55;16.67;;;;;;;11.45;81.74;99882.63;5085361;28;20080;-70
2021/10/29 12:11:06;;;;;;;42.90;25.77;;;;;;;11.32;82.08;99878.53;5085151;28;20036;-69
2021/10/29 12:13:42;;;;;;;21.67;13.30;;;;;;;11.50;81.95;99885.13;5067096;28;20017;-71
2021/10/29 12:16:16;;;;;;;32.45;18.27;;;;;;;11.50;81.67;99879.91;5084827;28;20024;-70
2021/10/29 12:18:56;;;;;;;30.45;15.48;;;;;;;11.50;81.34;99882.53;5066671;28;20035;-69
2021/10/29 12:21:23;;;;;;;39.33;24.25;;;;;;;11.39;82.26;99888.78;5084620;28;20059;-70
2021/10/29 12:23:51;;;;;;;33.50;17.25;;;;;;;11.47;81.99;99883.41;5084751;28;20024;-69
2021/10/29 12:26:19;;;;;;;24.92;14.38;;;;;;;11.53;81.99;99882.47;5084852;28;20048;-69
2021/10/29 12:28:49;;;;;;;34.63;21.20;;;;;;;11.44;82.50;99877.44;5084753;28;20032;-69
2021/10/29 12:31:23;;;;;;;36.67;21.13;;;;;;;11.41;83.82;99883.53;5084341;28;20028;-68
2021/10/29 13:01:43;;;;;;;25.98;17.67;;;;;;;12.08;80.26;99866.53;5084290;28;20138;-68
2021/10/29 13:04:24;;;;;;;30.45;10.85;;;;;;;12.27;79.63;99873.91;5065744;28;20380;-74
2021/10/29 13:06:53;;;;;;;23.80;14.40;;;;;;;12.12;79.65;99875.97;5084383;28;20103;-69
2021/10/29 13:09:24;;;;;;;25.73;16.00;;;;;;;11.99;80.87;99874.53;5084352;28;20040;-68
2021/10/29 13:12:01;;;;;;;34.13;20.13;;;;;;;11.93;81.18;99877.28;5066291;28;20012;-68
2021/10/29 13:15:12;;;;;;;31.83;18.33;;;;;;;11.97;80.87;99877.16;5084058;28;20106;-68
2021/10/29 13:17:28;;;;;;;33.67;18.38;;;;;;;11.98;80.98;99873.66;5075539;28;20040;-69
2021/10/29 13:38:21;;;;;;;28.13;17.63;;;;;;;11.93;81.02;99865.13;5084055;28;20032;-70
2021/10/29 14:29:19;;;;;;;25.15;12.80;;;;;;;11.58;78.50;99828.59;5083292;28;20047;-70
2021/10/29 14:31:53;;;;;;;14.95;9.07;;;;;;;11.88;76.52;99840.97;5082889;28;20024;-72
2021/10/29 14:34:35;;;;;;;12.43;8.07;;;;;;;11.81;77.22;99842.84;5082447;28;20017;-71
2021/10/29 14:37:12;;;;;;;25.13;14.57;;;;;;;11.68;77.41;99829.25;5082716;28;20036;-68
2021/10/29 14:39:54;;;;;;;22.02;13.38;;;;;;;11.69;77.36;99838.78;5065244;28;20037;-68
2021/10/29 15:00:27;;;;;;;23.38;12.93;;;;;;;11.70;77.41;99826.63;5086393;28;20058;-69
2021/10/29 15:29:28;;;;;;;17.60;9.70;;;;;;;11.51;78.42;99820.09;5085756;28;20025;-69
2021/10/29 15:43:11;;;;;;;17.52;10.30;;;;;;;11.29;78.93;99809.31;5085467;28;20059;-69
2021/10/29 15:45:43;;;;;;;15.82;9.68;;;;;;;11.37;78.57;99809.97;5085221;28;20028;-69
2021/10/29 15:50:35;;;;;;;20.10;12.05;;;;;;;11.38;78.69;99818.63;5085604;28;20029;-68
2021/10/29 15:53:02;;;;;;;19.52;10.77;;;;;;;11.48;78.40;99808.91;5085192;28;20023;-69
2021/10/29 16:03:22;;;;;;;13.30;7.00;;;;;;;11.42;78.70;99807.31;5085098;28;20033;-69
2021/10/29 16:19:27;;;;;;;18.98;9.13;;;;;;;11.19;79.08;99799.97;5084968;28;20515;-69
2021/10/29 16:21:53;;;;;;;27.00;15.32;;;;;;;11.10;79.45;99817.47;5084434;28;20032;-68